createdAt,value
2017-08-01T00:00:16.682Z,0
2017-08-01T00:00:57.578Z,0
2017-08-01T00:01:38.469Z,0
2017-08-01T00:02:19.363Z,0
2017-08-01T00:03:00.265Z,0
2017-08-01T00:03:41.170Z,0
2017-08-01T00:04:22.055Z,0
2017-08-01T00:05:02.949Z,0
2017-08-01T00:05:43.850Z,0
2017-08-01T00:06:24.750Z,0
2017-08-01T00:07:05.638Z,0
2017-08-01T00:07:46.538Z,0
2017-08-01T00:08:27.429Z,0
2017-08-01T00:09:08.326Z,0
2017-08-01T00:09:49.251Z,0
2017-08-01T00:10:30.136Z,0
2017-08-01T00:11:11.031Z,0
2017-08-01T00:11:51.930Z,0
2017-08-01T00:12:32.837Z,0
2017-08-01T00:13:13.731Z,0
2017-08-01T00:13:54.633Z,0
2017-08-01T00:14:35.530Z,0
2017-08-01T00:15:16.419Z,0
2017-08-01T00:15:57.312Z,0
2017-08-01T00:16:38.218Z,0
2017-08-01T00:17:19.108Z,0
2017-08-01T00:18:00.003Z,0
2017-08-01T00:18:40.892Z,0
2017-08-01T00:19:21.787Z,0
2017-08-01T00:20:02.687Z,0
2017-08-01T00:20:43.591Z,0
2017-08-01T00:21:24.492Z,0
2017-08-01T00:22:05.386Z,0
2017-08-01T00:22:46.285Z,0
2017-08-01T00:23:27.179Z,0
2017-08-01T00:24:08.079Z,0
2017-08-01T00:24:48.977Z,0
2017-08-01T00:25:29.873Z,0
2017-08-01T00:26:10.774Z,0
2017-08-01T00:26:51.686Z,0
2017-08-01T00:27:32.583Z,0
2017-08-01T00:28:13.471Z,0
2017-08-01T00:28:54.363Z,0
2017-08-01T00:29:35.826Z,0
2017-08-01T00:31:30.464Z,0
2017-08-01T00:32:11.361Z,0
2017-08-01T00:32:52.253Z,0
2017-08-01T00:33:33.149Z,0
2017-08-01T00:34:14.052Z,0
2017-08-01T00:34:54.950Z,0
2017-08-01T00:35:35.850Z,0
2017-08-01T00:36:16.739Z,0
2017-08-01T00:36:57.634Z,0
2017-08-01T00:37:38.531Z,0
2017-08-01T00:38:19.425Z,0
2017-08-01T00:39:00.321Z,0
2017-08-01T00:39:41.219Z,0
2017-08-01T00:40:22.116Z,0
2017-08-01T00:41:03.005Z,0
2017-08-01T00:41:43.901Z,0
2017-08-01T00:42:24.812Z,0
2017-08-01T00:43:05.704Z,0
2017-08-01T00:43:46.602Z,0
2017-08-01T00:44:27.487Z,0
2017-08-01T00:45:08.386Z,0
2017-08-01T00:45:49.282Z,0
2017-08-01T00:46:30.179Z,0
2017-08-01T00:47:11.075Z,0
2017-08-01T00:47:51.979Z,0
2017-08-01T00:48:32.868Z,0
2017-08-01T00:49:13.758Z,0
2017-08-01T00:49:54.657Z,0
2017-08-01T00:50:35.546Z,0
2017-08-01T00:51:16.449Z,0
2017-08-01T00:51:57.335Z,0
2017-08-01T00:52:38.227Z,0
2017-08-01T00:53:19.128Z,0
2017-08-01T00:54:00.019Z,0
2017-08-01T00:54:40.942Z,0
2017-08-01T00:55:21.827Z,0
2017-08-01T00:56:02.720Z,0
2017-08-01T00:56:43.610Z,0
2017-08-01T00:57:24.496Z,0
2017-08-01T00:58:05.390Z,0
2017-08-01T00:58:46.279Z,0
2017-08-01T00:59:27.166Z,0
2017-08-01T01:00:08.053Z,0
2017-08-01T01:00:48.965Z,0
2017-08-01T01:01:29.855Z,0
2017-08-01T01:02:10.752Z,0
2017-08-01T01:02:51.645Z,0
2017-08-01T01:03:32.529Z,0
2017-08-01T01:04:13.422Z,0
2017-08-01T01:04:54.309Z,0
2017-08-01T01:05:35.197Z,0
2017-08-01T01:06:16.084Z,0
2017-08-01T01:06:56.978Z,0
2017-08-01T01:07:37.878Z,0
2017-08-01T01:08:18.777Z,0
2017-08-01T01:08:59.671Z,0
2017-08-01T01:09:40.564Z,0
2017-08-01T01:10:21.463Z,0
2017-08-01T01:11:02.362Z,0
2017-08-01T01:11:43.240Z,0
2017-08-01T01:12:24.152Z,0
2017-08-01T01:13:05.045Z,0
2017-08-01T01:13:45.935Z,0
2017-08-01T01:14:26.828Z,0
2017-08-01T01:15:07.722Z,0
2017-08-01T01:15:48.629Z,0
2017-08-01T01:16:29.523Z,0
2017-08-01T01:17:10.420Z,0
2017-08-01T01:17:51.313Z,0
2017-08-01T01:18:32.205Z,0
2017-08-01T01:19:13.105Z,0
2017-08-01T01:19:54.007Z,0
2017-08-01T01:20:34.898Z,0
2017-08-01T01:21:15.793Z,0
2017-08-01T01:21:56.691Z,0
2017-08-01T01:22:37.586Z,0
2017-08-01T01:23:18.474Z,0
2017-08-01T01:23:59.387Z,0
2017-08-01T01:24:40.284Z,0
2017-08-01T01:25:21.185Z,0
2017-08-01T01:26:02.078Z,0
2017-08-01T01:26:42.962Z,0
2017-08-01T01:27:23.853Z,0
2017-08-01T01:28:04.740Z,0
2017-08-01T01:28:45.640Z,0
2017-08-01T01:29:26.530Z,0
2017-08-01T01:30:07.424Z,0
2017-08-01T01:30:48.316Z,0
2017-08-01T01:31:29.204Z,0
2017-08-01T01:32:10.098Z,0
2017-08-01T01:32:51.004Z,0
2017-08-01T01:33:31.903Z,0
2017-08-01T01:34:12.796Z,0
2017-08-01T01:34:53.695Z,0
2017-08-01T01:35:34.587Z,0
2017-08-01T01:36:15.488Z,0
2017-08-01T01:36:56.375Z,0
2017-08-01T01:37:37.264Z,0
2017-08-01T01:38:18.161Z,0
2017-08-01T01:38:59.054Z,0
2017-08-01T01:39:39.943Z,0
2017-08-01T01:40:20.837Z,0
2017-08-01T01:41:01.728Z,0
2017-08-01T01:41:42.618Z,0
2017-08-01T01:42:23.515Z,0
2017-08-01T01:43:04.415Z,0
2017-08-01T01:43:45.297Z,0
2017-08-01T01:44:26.191Z,0
2017-08-01T01:45:07.080Z,0
2017-08-01T01:45:47.983Z,0
2017-08-01T01:46:28.882Z,0
2017-08-01T01:47:09.776Z,0
2017-08-01T01:47:50.678Z,0
2017-08-01T01:48:31.571Z,0
2017-08-01T01:49:12.455Z,0
2017-08-01T01:49:53.359Z,0
2017-08-01T01:50:34.253Z,0
2017-08-01T01:51:15.160Z,0
2017-08-01T01:51:56.063Z,0
2017-08-01T01:52:36.944Z,0
2017-08-01T01:53:17.836Z,0
2017-08-01T01:53:58.739Z,0
2017-08-01T01:54:39.632Z,0
2017-08-01T01:55:20.531Z,0
2017-08-01T01:56:01.427Z,0
2017-08-01T01:56:42.324Z,0
2017-08-01T01:57:23.221Z,0
2017-08-01T01:58:04.113Z,0
2017-08-01T01:58:45.005Z,0
2017-08-01T01:59:25.908Z,0
2017-08-01T02:00:06.805Z,0
2017-08-01T02:00:47.703Z,0
2017-08-01T02:01:28.599Z,0
2017-08-01T02:02:09.502Z,0
2017-08-01T02:02:50.411Z,0
2017-08-01T02:03:31.298Z,0
2017-08-01T02:04:12.193Z,0
2017-08-01T02:04:53.091Z,0
2017-08-01T02:05:33.978Z,0
2017-08-01T02:06:14.878Z,0
2017-08-01T02:06:55.778Z,0
2017-08-01T02:07:36.679Z,0
2017-08-01T02:08:17.578Z,0
2017-08-01T02:08:58.469Z,0
2017-08-01T02:09:39.377Z,0
2017-08-01T02:10:20.279Z,0
2017-08-01T02:11:01.173Z,0
2017-08-01T02:11:42.078Z,0
2017-08-01T02:12:22.980Z,0
2017-08-01T02:13:03.871Z,0
2017-08-01T02:13:44.777Z,0
2017-08-01T02:14:25.675Z,0
2017-08-01T02:15:06.570Z,0
2017-08-01T02:15:47.467Z,0
2017-08-01T02:16:28.363Z,0
2017-08-01T02:17:09.248Z,0
2017-08-01T02:17:50.148Z,0
2017-08-01T02:18:31.053Z,0
2017-08-01T02:19:11.944Z,0
2017-08-01T02:19:52.842Z,0
2017-08-01T02:20:33.735Z,0
2017-08-01T02:21:14.634Z,0
2017-08-01T02:21:55.527Z,0
2017-08-01T02:22:36.456Z,0
2017-08-01T02:23:17.355Z,0
2017-08-01T02:23:58.242Z,0
2017-08-01T02:24:39.136Z,0
2017-08-01T02:25:20.037Z,0
2017-08-01T02:26:00.927Z,0
2017-08-01T02:26:41.824Z,0
2017-08-01T02:27:22.719Z,0
2017-08-01T02:28:03.609Z,0
2017-08-01T02:28:44.499Z,0
2017-08-01T02:29:25.394Z,0
2017-08-01T02:30:06.283Z,0
2017-08-01T02:30:47.177Z,0
2017-08-01T02:31:28.079Z,0
2017-08-01T02:32:08.977Z,0
2017-08-01T02:32:49.893Z,0
2017-08-01T02:33:30.791Z,0
2017-08-01T02:34:11.691Z,0
2017-08-01T02:34:52.576Z,0
2017-08-01T02:35:33.455Z,0
2017-08-01T02:36:14.346Z,0
2017-08-01T02:36:55.240Z,0
2017-08-01T02:37:36.132Z,0
2017-08-01T02:38:17.033Z,0
2017-08-01T02:38:57.923Z,0
2017-08-01T02:39:38.827Z,0
2017-08-01T02:40:19.747Z,0
2017-08-01T02:41:00.641Z,0
2017-08-01T02:41:41.538Z,0
2017-08-01T02:42:22.430Z,0
2017-08-01T02:43:03.327Z,0
2017-08-01T02:43:44.231Z,0
2017-08-01T02:44:25.134Z,0
2017-08-01T02:45:06.046Z,0
2017-08-01T02:45:46.924Z,0
2017-08-01T02:46:27.824Z,0
2017-08-01T02:47:08.719Z,0
2017-08-01T02:47:49.617Z,0
2017-08-01T02:48:30.509Z,0
2017-08-01T02:49:11.400Z,0
2017-08-01T02:49:52.290Z,0
2017-08-01T02:50:33.186Z,0
2017-08-01T02:51:14.079Z,0
2017-08-01T02:51:54.975Z,0
2017-08-01T02:52:35.874Z,0
2017-08-01T02:53:16.778Z,0
2017-08-01T02:53:57.664Z,0
2017-08-01T02:54:38.560Z,0
2017-08-01T02:55:19.446Z,0
2017-08-01T02:56:00.341Z,0
2017-08-01T02:56:41.237Z,0
2017-08-01T02:57:22.126Z,0
2017-08-01T02:58:03.024Z,0
2017-08-01T02:58:43.932Z,0
2017-08-01T02:59:24.797Z,0
2017-08-01T03:00:05.689Z,0
2017-08-01T03:00:46.589Z,0
2017-08-01T03:01:27.479Z,0
2017-08-01T03:02:08.371Z,0
2017-08-01T03:02:49.268Z,0
2017-08-01T03:03:30.163Z,0
2017-08-01T03:04:11.058Z,0
2017-08-01T03:04:51.966Z,0
2017-08-01T03:05:32.868Z,0
2017-08-01T03:06:13.765Z,0
2017-08-01T03:06:54.663Z,0
2017-08-01T03:07:35.559Z,0
2017-08-01T03:08:16.470Z,0
2017-08-01T03:08:57.370Z,0
2017-08-01T03:09:38.259Z,0
2017-08-01T03:10:19.157Z,0
2017-08-01T03:11:00.052Z,0
2017-08-01T03:11:40.948Z,0
2017-08-01T03:12:21.839Z,0
2017-08-01T03:13:02.746Z,0
2017-08-01T03:13:43.625Z,0
2017-08-01T03:14:24.520Z,0
2017-08-01T03:15:05.423Z,0
2017-08-01T03:15:46.319Z,0
2017-08-01T03:16:27.219Z,0
2017-08-01T03:17:08.107Z,0
2017-08-01T03:17:49.003Z,0
2017-08-01T03:18:29.915Z,0
2017-08-01T03:19:10.794Z,0
2017-08-01T03:19:51.713Z,0
2017-08-01T03:20:32.595Z,0
2017-08-01T03:21:13.504Z,0
2017-08-01T03:21:54.407Z,0
2017-08-01T03:22:35.295Z,0
2017-08-01T03:23:16.202Z,0
2017-08-01T03:23:57.118Z,0
2017-08-01T03:24:38.020Z,0
2017-08-01T03:25:18.912Z,0
2017-08-01T03:25:59.810Z,0
2017-08-01T03:26:40.706Z,0
2017-08-01T03:27:21.609Z,0
2017-08-01T03:28:02.501Z,0
2017-08-01T03:28:43.398Z,0
2017-08-01T03:29:24.294Z,0
2017-08-01T03:30:05.192Z,0
2017-08-01T03:30:46.126Z,0
2017-08-01T03:31:27.029Z,0
2017-08-01T03:32:07.914Z,5
2017-08-01T03:32:48.803Z,0
2017-08-01T03:33:29.699Z,0
2017-08-01T03:34:10.595Z,0
2017-08-01T03:34:51.479Z,0
2017-08-01T03:35:32.380Z,5
2017-08-01T03:36:13.258Z,5
2017-08-01T03:36:54.154Z,5
2017-08-01T03:37:35.043Z,5
2017-08-01T03:38:15.943Z,5
2017-08-01T03:38:56.833Z,5
2017-08-01T03:39:37.747Z,5
2017-08-01T03:40:18.636Z,5
2017-08-01T03:40:59.560Z,5
2017-08-01T03:41:40.447Z,5
2017-08-01T03:42:21.342Z,5
2017-08-01T03:43:02.235Z,5
2017-08-01T03:43:43.149Z,5
2017-08-01T03:44:24.046Z,5
2017-08-01T03:45:04.931Z,5
2017-08-01T03:45:45.846Z,5
2017-08-01T03:46:26.737Z,5
2017-08-01T03:47:07.637Z,5
2017-08-01T03:47:48.549Z,5
2017-08-01T03:48:29.455Z,5
2017-08-01T03:49:10.358Z,5
2017-08-01T03:49:51.247Z,0
2017-08-01T03:50:32.148Z,5
2017-08-01T03:51:13.043Z,5
2017-08-01T03:51:53.937Z,5
2017-08-01T03:52:34.837Z,5
2017-08-01T03:53:15.722Z,10
2017-08-01T03:53:56.626Z,10
2017-08-01T03:54:37.529Z,15
2017-08-01T03:55:18.410Z,15
2017-08-01T03:55:59.299Z,15
2017-08-01T03:56:40.208Z,20
2017-08-01T03:57:21.099Z,20
2017-08-01T03:58:02.003Z,25
2017-08-01T03:58:42.927Z,25
2017-08-01T03:59:23.819Z,30
2017-08-01T04:00:04.727Z,30
2017-08-01T04:00:45.621Z,30
2017-08-01T04:01:26.552Z,30
2017-08-01T04:02:07.452Z,30
2017-08-01T04:02:48.349Z,30
2017-08-01T04:03:29.249Z,25
2017-08-01T04:04:10.153Z,25
2017-08-01T04:04:51.044Z,30
2017-08-01T04:05:31.945Z,30
2017-08-01T04:06:12.840Z,30
2017-08-01T04:06:53.729Z,35
2017-08-01T04:07:34.644Z,35
2017-08-01T04:08:15.534Z,40
2017-08-01T04:08:56.426Z,40
2017-08-01T04:09:37.321Z,40
2017-08-01T04:10:18.214Z,40
2017-08-01T04:10:59.115Z,40
2017-08-01T04:11:40.014Z,35
2017-08-01T04:12:20.906Z,30
2017-08-01T04:13:01.815Z,30
2017-08-01T04:13:42.705Z,25
2017-08-01T04:14:23.595Z,15
2017-08-01T04:15:04.492Z,10
2017-08-01T04:15:45.385Z,10
2017-08-01T04:16:26.284Z,5
2017-08-01T04:17:07.190Z,5
2017-08-01T04:17:48.094Z,5
2017-08-01T04:18:28.981Z,5
2017-08-01T04:19:09.887Z,5
2017-08-01T04:19:50.776Z,0
2017-08-01T04:20:31.671Z,0
2017-08-01T04:21:12.573Z,0
2017-08-01T04:21:53.483Z,5
2017-08-01T04:22:34.397Z,5
2017-08-01T04:23:15.296Z,5
2017-08-01T04:23:56.234Z,5
2017-08-01T04:24:37.125Z,5
2017-08-01T04:25:18.034Z,5
2017-08-01T04:25:58.934Z,5
2017-08-01T04:26:39.833Z,5
2017-08-01T04:27:20.735Z,5
2017-08-01T04:28:01.634Z,5
2017-08-01T04:28:42.563Z,10
2017-08-01T04:29:23.440Z,10
2017-08-01T04:30:04.335Z,15
2017-08-01T04:30:45.237Z,15
2017-08-01T04:31:26.126Z,20
2017-08-01T04:32:07.037Z,20
2017-08-01T04:32:47.932Z,20
2017-08-01T04:33:28.823Z,20
2017-08-01T04:34:09.716Z,20
2017-08-01T04:34:50.614Z,15
2017-08-01T04:35:31.515Z,15
2017-08-01T04:36:12.414Z,15
2017-08-01T04:36:53.304Z,15
2017-08-01T04:37:34.200Z,15
2017-08-01T04:38:15.088Z,10
2017-08-01T04:38:55.977Z,10
2017-08-01T04:39:36.956Z,10
2017-08-01T04:40:17.785Z,5
2017-08-01T04:40:58.669Z,5
2017-08-01T04:41:39.559Z,5
2017-08-01T04:42:20.464Z,5
2017-08-01T04:43:01.362Z,5
2017-08-01T04:43:42.259Z,5
2017-08-01T04:44:23.148Z,10
2017-08-01T04:45:04.048Z,10
2017-08-01T04:45:44.945Z,10
2017-08-01T04:46:25.830Z,10
2017-08-01T04:47:06.744Z,10
2017-08-01T04:47:47.636Z,10
2017-08-01T04:48:28.544Z,10
2017-08-01T04:49:09.430Z,10
2017-08-01T04:49:50.327Z,10
2017-08-01T04:50:31.217Z,10
2017-08-01T04:51:12.103Z,10
2017-08-01T04:51:52.993Z,10
2017-08-01T04:52:33.897Z,10
2017-08-01T04:53:14.789Z,10
2017-08-01T04:53:55.688Z,10
2017-08-01T04:54:36.590Z,10
2017-08-01T04:55:17.482Z,10
2017-08-01T04:55:58.377Z,5
2017-08-01T04:56:39.275Z,5
2017-08-01T04:57:20.170Z,5
2017-08-01T04:58:01.078Z,5
2017-08-01T04:58:41.964Z,5
2017-08-01T04:59:22.882Z,5
2017-08-01T05:00:03.760Z,5
2017-08-01T05:00:44.651Z,5
2017-08-01T05:01:25.544Z,5
2017-08-01T05:02:06.442Z,5
2017-08-01T05:02:47.334Z,5
2017-08-01T05:03:28.235Z,5
2017-08-01T05:04:09.128Z,5
2017-08-01T05:04:50.024Z,5
2017-08-01T05:05:30.916Z,5
2017-08-01T05:06:11.842Z,10
2017-08-01T05:06:52.735Z,10
2017-08-01T05:07:33.638Z,15
2017-08-01T05:08:14.532Z,15
2017-08-01T05:08:55.432Z,20
2017-08-01T05:09:36.327Z,25
2017-08-01T05:10:17.250Z,25
2017-08-01T05:10:58.128Z,30
2017-08-01T05:11:39.022Z,35
2017-08-01T05:12:19.908Z,35
2017-08-01T05:13:00.807Z,45
2017-08-01T05:13:41.697Z,50
2017-08-01T05:14:22.599Z,50
2017-08-01T05:15:03.499Z,55
2017-08-01T05:15:44.389Z,60
2017-08-01T05:16:25.280Z,65
2017-08-01T05:17:06.167Z,65
2017-08-01T05:17:47.069Z,65
2017-08-01T05:18:27.968Z,70
2017-08-01T05:19:08.860Z,70
2017-08-01T05:19:49.757Z,70
2017-08-01T05:20:30.643Z,70
2017-08-01T05:21:11.548Z,65
2017-08-01T05:21:52.444Z,70
2017-08-01T05:22:33.331Z,70
2017-08-01T05:23:14.228Z,75
2017-08-01T05:23:55.122Z,80
2017-08-01T05:24:36.012Z,80
2017-08-01T05:25:16.913Z,80
2017-08-01T05:25:57.813Z,75
2017-08-01T05:26:38.730Z,75
2017-08-01T05:27:19.613Z,75
2017-08-01T05:28:00.502Z,75
2017-08-01T05:28:41.394Z,70
2017-08-01T05:29:22.305Z,65
2017-08-01T05:30:03.191Z,60
2017-08-01T05:30:44.085Z,55
2017-08-01T05:31:24.982Z,45
2017-08-01T05:32:05.879Z,40
2017-08-01T05:32:46.774Z,40
2017-08-01T05:33:27.664Z,35
2017-08-01T05:34:08.568Z,30
2017-08-01T05:34:49.458Z,30
2017-08-01T05:35:30.342Z,25
2017-08-01T05:36:11.277Z,25
2017-08-01T05:36:52.169Z,25
2017-08-01T05:37:33.071Z,25
2017-08-01T05:38:13.967Z,20
2017-08-01T05:38:54.859Z,20
2017-08-01T05:39:35.750Z,20
2017-08-01T05:40:16.658Z,20
2017-08-01T05:40:57.544Z,20
2017-08-01T05:41:38.421Z,25
2017-08-01T05:42:19.313Z,25
2017-08-01T05:43:00.212Z,25
2017-08-01T05:43:41.105Z,30
2017-08-01T05:44:22.002Z,30
2017-08-01T05:45:02.877Z,35
2017-08-01T05:45:43.771Z,40
2017-08-01T05:46:24.672Z,45
2017-08-01T05:47:05.541Z,50
2017-08-01T05:47:46.434Z,50
2017-08-01T05:48:27.335Z,55
2017-08-01T05:49:08.238Z,55
2017-08-01T05:49:49.135Z,55
2017-08-01T05:50:30.031Z,55
2017-08-01T05:51:10.920Z,55
2017-08-01T05:51:51.808Z,55
2017-08-01T05:52:32.741Z,50
2017-08-01T05:53:13.647Z,50
2017-08-01T05:53:54.534Z,45
2017-08-01T05:54:35.414Z,45
2017-08-01T05:55:16.322Z,40
2017-08-01T05:55:57.203Z,35
2017-08-01T05:56:38.092Z,30
2017-08-01T05:57:18.990Z,30
2017-08-01T05:57:59.880Z,25
2017-08-01T05:58:40.772Z,25
2017-08-01T06:00:55.035Z,20
2017-08-01T06:01:35.933Z,20
2017-08-01T06:02:16.823Z,15
2017-08-01T06:02:57.713Z,15
2017-08-01T06:03:38.598Z,15
2017-08-01T06:04:19.499Z,15
2017-08-01T06:05:00.401Z,15
2017-08-01T06:05:41.296Z,15
2017-08-01T06:06:22.185Z,15
2017-08-01T06:07:03.088Z,15
2017-08-01T06:07:43.976Z,15
2017-08-01T06:08:24.863Z,15
2017-08-01T06:09:05.790Z,15
2017-08-01T06:09:46.678Z,15
2017-08-01T06:10:27.595Z,15
2017-08-01T06:11:08.496Z,15
2017-08-01T06:11:49.398Z,15
2017-08-01T06:12:30.302Z,15
2017-08-01T06:13:11.199Z,15
2017-08-01T06:13:52.098Z,20
2017-08-01T06:14:33.028Z,20
2017-08-01T06:18:10.213Z,20
2017-08-01T06:18:51.085Z,20
2017-08-01T06:19:31.996Z,20
2017-08-01T06:20:12.876Z,20
2017-08-01T06:20:53.754Z,20
2017-08-01T06:21:34.622Z,25
2017-08-01T06:22:15.536Z,25
2017-08-01T06:22:56.405Z,30
2017-08-01T06:23:37.300Z,30
2017-08-01T06:24:18.187Z,35
2017-08-01T06:24:59.054Z,40
2017-08-01T06:25:39.935Z,45
2017-08-01T06:26:20.818Z,50
2017-08-01T06:27:01.690Z,60
2017-08-01T06:27:42.551Z,65
2017-08-01T06:28:23.417Z,75
2017-08-01T06:29:04.291Z,80
2017-08-01T06:29:45.148Z,85
2017-08-01T06:30:26.026Z,90
2017-08-01T06:31:06.904Z,95
2017-08-01T06:31:47.794Z,95
2017-08-01T06:32:28.659Z,95
2017-08-01T06:33:09.537Z,90
2017-08-01T06:33:50.401Z,90
2017-08-01T06:34:31.280Z,90
2017-08-01T06:35:12.155Z,85
2017-08-01T06:35:53.052Z,85
2017-08-01T06:36:33.931Z,90
2017-08-01T06:37:14.798Z,90
2017-08-01T06:37:55.667Z,90
2017-08-01T06:38:36.560Z,90
2017-08-01T06:39:17.430Z,95
2017-08-01T06:39:58.297Z,95
2017-08-01T06:40:39.165Z,100
2017-08-01T06:41:20.031Z,100
2017-08-01T06:42:00.914Z,110
2017-08-01T06:42:41.815Z,115
2017-08-01T06:43:22.688Z,120
2017-08-01T06:44:03.554Z,125
2017-08-01T06:44:44.419Z,135
2017-08-01T06:45:25.292Z,140
2017-08-01T06:46:06.176Z,145
2017-08-01T06:46:47.060Z,150
2017-08-01T06:47:27.928Z,160
2017-08-01T06:48:08.792Z,170
2017-08-01T06:48:49.665Z,185
2017-08-01T06:49:30.528Z,205
2017-08-01T06:50:11.416Z,215
2017-08-01T06:50:52.312Z,230
2017-08-01T06:51:33.186Z,245
2017-08-01T06:52:14.096Z,255
2017-08-01T06:52:54.978Z,280
2017-08-01T06:53:35.858Z,295
2017-08-01T06:54:16.721Z,310
2017-08-01T06:54:57.625Z,330
2017-08-01T06:55:38.501Z,340
2017-08-01T06:56:19.381Z,360
2017-08-01T06:57:00.245Z,370
2017-08-01T06:57:41.118Z,380
2017-08-01T07:00:00.449Z,475
2017-08-01T07:00:41.332Z,540
2017-08-01T07:01:22.214Z,540
2017-08-01T07:02:03.074Z,630
2017-08-01T07:02:43.956Z,690
2017-08-01T07:03:24.840Z,825
2017-08-01T07:04:05.716Z,890
2017-08-01T07:04:46.619Z,1020
2017-08-01T07:05:27.520Z,0
2017-08-01T07:06:08.418Z,0
2017-08-01T07:06:49.286Z,0
2017-08-01T07:07:30.201Z,1115
2017-08-01T07:08:11.101Z,1080
2017-08-01T07:08:51.986Z,1310
2017-08-01T07:09:32.881Z,1475
2017-08-01T07:10:13.757Z,1580
2017-08-01T07:10:54.628Z,1590
2017-08-01T07:11:35.509Z,1280
2017-08-01T07:12:16.406Z,1795
2017-08-01T07:12:57.289Z,1390
2017-08-01T07:13:38.158Z,965
2017-08-01T07:14:19.036Z,1730
2017-08-01T07:14:59.921Z,1335
2017-08-01T07:15:40.795Z,1250
2017-08-01T07:16:21.665Z,1350
2017-08-01T07:17:02.534Z,1945
2017-08-01T07:17:43.394Z,2190
2017-08-01T07:18:24.292Z,2090
2017-08-01T07:19:05.200Z,0
2017-08-01T07:19:46.069Z,0
2017-08-01T07:20:26.949Z,0
2017-08-01T07:21:07.877Z,0
2017-08-01T07:21:48.789Z,0
2017-08-01T07:22:29.677Z,0
2017-08-01T07:23:10.562Z,0
2017-08-01T07:25:24.723Z,0
2017-08-01T07:26:05.585Z,0
2017-08-01T07:26:46.497Z,0
2017-08-01T07:27:27.364Z,0
2017-08-01T07:28:08.240Z,0
2017-08-01T07:28:49.118Z,0
2017-08-01T07:29:29.996Z,0
2017-08-01T07:30:10.900Z,0
2017-08-01T07:30:51.763Z,0
2017-08-01T07:31:32.653Z,0
2017-08-01T07:32:13.551Z,0
2017-08-01T07:32:54.425Z,0
2017-08-01T07:33:35.299Z,0
2017-08-01T07:34:16.174Z,465
2017-08-01T07:34:57.046Z,1280
2017-08-01T07:35:37.919Z,0
2017-08-01T07:36:18.815Z,1780
2017-08-01T07:36:59.685Z,780
2017-08-01T07:39:19.056Z,2090
2017-08-01T07:39:59.942Z,2250
2017-08-01T07:40:40.823Z,2210
2017-08-01T07:41:21.748Z,2080
2017-08-01T07:42:02.628Z,1840
2017-08-01T07:42:43.520Z,1665
2017-08-01T07:43:24.405Z,1400
2017-08-01T07:44:05.294Z,1215
2017-08-01T07:44:46.192Z,1000
2017-08-01T07:45:27.101Z,775
2017-08-01T07:46:07.952Z,725
2017-08-01T07:46:48.850Z,700
2017-08-01T07:47:29.742Z,720
2017-08-01T07:48:10.647Z,745
2017-08-01T07:48:51.523Z,750
2017-08-01T07:49:32.422Z,735
2017-08-01T07:50:13.300Z,715
2017-08-01T07:50:54.188Z,550
2017-08-01T07:51:35.064Z,485
2017-08-01T07:52:15.950Z,510
2017-08-01T07:52:56.833Z,720
2017-08-01T07:53:37.723Z,525
2017-08-01T07:54:18.620Z,675
2017-08-01T07:54:59.512Z,545
2017-08-01T07:55:40.414Z,700
2017-08-01T07:56:21.309Z,725
2017-08-01T07:57:02.239Z,610
2017-08-01T07:57:43.149Z,650
2017-08-01T07:58:24.045Z,675
2017-08-01T07:59:04.948Z,685
2017-08-01T07:59:45.829Z,865
2017-08-01T08:00:26.733Z,835
2017-08-01T08:01:07.621Z,620
2017-08-01T08:01:48.505Z,520
2017-08-01T08:02:29.398Z,475
2017-08-01T08:03:10.307Z,440
2017-08-01T08:03:51.198Z,415
2017-08-01T08:04:32.101Z,415
2017-08-01T08:05:12.975Z,430
2017-08-01T08:05:53.855Z,445
2017-08-01T08:06:34.724Z,455
2017-08-01T08:07:15.606Z,440
2017-08-01T08:07:56.492Z,430
2017-08-01T08:08:37.390Z,470
2017-08-01T08:09:18.264Z,405
2017-08-01T08:09:59.154Z,400
2017-08-01T08:12:13.331Z,445
2017-08-01T08:12:54.223Z,455
2017-08-01T08:13:35.107Z,490
2017-08-01T08:14:16.006Z,560
2017-08-01T08:14:56.874Z,730
2017-08-01T08:15:37.753Z,630
2017-08-01T08:16:18.660Z,735
2017-08-01T08:16:59.548Z,1325
2017-08-01T08:17:40.431Z,2165
2017-08-01T08:18:21.326Z,1735
2017-08-01T08:19:02.213Z,515
2017-08-01T08:19:43.101Z,1015
2017-08-01T08:20:23.968Z,700
2017-08-01T08:21:04.852Z,2170
2017-08-01T08:21:45.747Z,1395
2017-08-01T08:22:26.610Z,2265
2017-08-01T08:23:07.499Z,2090
2017-08-01T08:23:48.379Z,2070
2017-08-01T08:24:29.267Z,2045
2017-08-01T08:25:10.139Z,2145
2017-08-01T08:25:51.019Z,2240
2017-08-01T08:26:31.912Z,2420
2017-08-01T08:27:12.813Z,2585
2017-08-01T08:27:53.694Z,2415
2017-08-01T08:28:34.565Z,1290
2017-08-01T08:29:15.439Z,875
2017-08-01T08:29:56.356Z,1690
2017-08-01T08:30:37.225Z,2260
2017-08-01T08:31:18.110Z,2585
2017-08-01T08:31:59.011Z,2305
2017-08-01T08:32:39.900Z,1790
2017-08-01T08:33:20.794Z,1175
2017-08-01T08:34:01.671Z,1535
2017-08-01T08:34:42.568Z,1315
2017-08-01T08:35:23.474Z,2615
2017-08-01T08:36:04.375Z,2625
2017-08-01T08:36:45.290Z,2565
2017-08-01T08:37:26.191Z,2435
2017-08-01T08:38:07.074Z,1725
2017-08-01T08:38:47.965Z,1295
2017-08-01T08:39:28.843Z,2420
2017-08-01T08:40:09.731Z,2415
2017-08-01T08:40:50.649Z,2250
2017-08-01T08:41:31.551Z,2030
2017-08-01T08:42:12.513Z,2005
2017-08-01T08:42:53.423Z,1980
2017-08-01T08:43:34.328Z,2235
2017-08-01T08:44:15.212Z,2405
2017-08-01T08:44:56.120Z,2560
2017-08-01T08:45:37.015Z,1025
2017-08-01T08:46:17.916Z,825
2017-08-01T08:46:58.822Z,945
2017-08-01T08:47:39.708Z,2290
2017-08-01T08:48:20.601Z,1705
2017-08-01T08:49:01.500Z,2405
2017-08-01T08:49:42.409Z,2660
2017-08-01T08:50:23.314Z,2525
2017-08-01T08:51:04.205Z,2545
2017-08-01T08:51:45.095Z,2370
2017-08-01T08:52:26.005Z,2360
2017-08-01T08:53:06.893Z,2090
2017-08-01T08:53:47.811Z,1955
2017-08-01T08:54:28.714Z,1905
2017-08-01T08:55:09.610Z,1745
2017-08-01T08:55:50.521Z,1555
2017-08-01T08:56:31.455Z,2120
2017-08-01T08:57:12.363Z,2305
2017-08-01T08:57:53.280Z,1870
2017-08-01T08:58:34.187Z,1625
2017-08-01T08:59:15.086Z,1930
2017-08-01T08:59:55.968Z,1950
2017-08-01T09:00:36.880Z,1845
2017-08-01T09:01:17.768Z,2165
2017-08-01T09:01:58.645Z,1910
2017-08-01T09:02:39.544Z,1585
2017-08-01T09:03:20.441Z,2125
2017-08-01T09:04:01.356Z,1825
2017-08-01T09:04:42.254Z,1970
2017-08-01T09:05:23.158Z,2435
2017-08-01T09:06:04.063Z,2815
2017-08-01T09:06:44.976Z,2225
2017-08-01T09:07:25.900Z,1560
2017-08-01T09:09:19.559Z,3045
2017-08-01T09:10:00.466Z,3050
2017-08-01T09:10:41.364Z,3030
2017-08-01T09:11:22.257Z,3055
2017-08-01T09:12:03.159Z,3030
2017-08-01T09:12:44.060Z,3065
2017-08-01T09:14:58.277Z,1450
2017-08-01T09:15:39.182Z,1075
2017-08-01T09:16:20.095Z,1555
2017-08-01T09:17:00.989Z,3120
2017-08-01T09:17:41.890Z,3080
2017-08-01T09:18:22.784Z,3055
2017-08-01T09:19:03.681Z,3080
2017-08-01T09:19:44.591Z,3030
2017-08-01T09:20:25.484Z,2725
2017-08-01T09:21:06.380Z,770
2017-08-01T09:21:47.307Z,2365
2017-08-01T09:22:28.216Z,2840
2017-08-01T09:23:09.121Z,805
2017-08-01T09:23:50.009Z,1390
2017-08-01T09:24:30.924Z,2555
2017-08-01T09:25:11.845Z,2535
2017-08-01T09:25:52.747Z,1800
2017-08-01T09:26:33.634Z,1920
2017-08-01T09:27:14.533Z,2010
2017-08-01T09:27:55.422Z,1870
2017-08-01T09:28:36.321Z,2190
2017-08-01T09:29:17.223Z,2460
2017-08-01T09:29:58.111Z,2565
2017-08-01T09:30:39.023Z,2415
2017-08-01T09:31:19.927Z,2345
2017-08-01T09:32:00.827Z,2645
2017-08-01T09:32:41.728Z,3080
2017-08-01T09:33:22.619Z,3195
2017-08-01T09:34:03.514Z,3260
2017-08-01T09:34:44.406Z,3235
2017-08-01T09:35:25.308Z,3180
2017-08-01T09:36:06.218Z,3180
2017-08-01T09:36:47.097Z,3165
2017-08-01T09:37:28.003Z,3205
2017-08-01T09:38:08.907Z,3245
2017-08-01T09:38:49.826Z,3270
2017-08-01T09:39:30.723Z,3250
2017-08-01T09:40:11.627Z,3300
2017-08-01T09:40:52.535Z,3290
2017-08-01T09:41:33.415Z,3265
2017-08-01T09:42:14.320Z,3270
2017-08-01T09:42:55.222Z,3265
2017-08-01T09:43:36.116Z,3280
2017-08-01T09:44:17.025Z,3275
2017-08-01T09:44:57.930Z,3280
2017-08-01T09:45:38.848Z,3230
2017-08-01T09:46:19.756Z,3200
2017-08-01T09:47:00.661Z,3180
2017-08-01T09:47:41.558Z,3205
2017-08-01T09:48:22.478Z,3195
2017-08-01T09:49:03.423Z,3195
2017-08-01T09:49:44.327Z,3200
2017-08-01T09:50:25.234Z,3245
2017-08-01T09:51:06.133Z,3295
2017-08-01T09:51:47.027Z,3345
2017-08-01T09:52:27.929Z,3355
2017-08-01T09:53:08.840Z,3335
2017-08-01T09:53:49.746Z,3315
2017-08-01T09:54:30.648Z,3145
2017-08-01T09:55:11.564Z,2640
2017-08-01T09:55:52.457Z,2830
2017-08-01T09:56:33.362Z,3010
2017-08-01T09:57:14.264Z,3050
2017-08-01T09:57:55.159Z,3015